Time;durP1;ratioP1;P1;durP2;ratioP2;P2;SDS_P1;SDS_P2;PMS_P1;PMS_P2;Temp;Humidity;BMP_temperature;BMP_pressure;BME280_temperature;BME280_humidity;BME280_pressure;Samples;Min_cycle;Max_cycle;Signal;HPM_P1;HPM_P2
2023/05/14 00:00:07;;;;;;;6.50;4.18;;;;;;;;;;5011773;28;20475;-70
2023/05/14 00:02:32;;;;;;;9.23;4.57;;;;;;;;;;5023330;28;20125;-70
2023/05/14 00:04:57;;;;;;;12.43;4.20;;;;;;;;;;5010467;28;20122;-70
2023/05/14 00:07:29;;;;;;;7.95;4.80;;;;;;;;;;5001106;28;20010;-67
2023/05/14 00:09:54;;;;;;;7.35;3.90;;;;;;;;;;5014986;28;20508;-66
2023/05/14 00:12:20;;;;;;;7.78;4.25;;;;;;;;;;5014674;28;20073;-66
2023/05/14 00:14:45;;;;;;;8.20;4.32;;;;;;;;;;5010925;28;20025;-68
2023/05/14 00:17:10;;;;;;;8.05;4.55;;;;;;;;;;5031674;28;20025;-70
2023/05/14 00:19:35;;;;;;;8.55;4.38;;;;;;;;;;5010781;28;20030;-69
2023/05/14 00:22:01;;;;;;;7.15;4.47;;;;;;;;;;5009470;28;20040;-70
2023/05/14 00:24:26;;;;;;;10.80;4.75;;;;;;;;;;5021832;28;20032;-70
2023/05/14 00:26:51;;;;;;;8.68;4.55;;;;;;;;;;5024027;28;20067;-70
2023/05/14 00:29:17;;;;;;;10.45;5.05;;;;;;;;;;5021681;28;20034;-71
2023/05/14 00:31:42;;;;;;;9.70;4.72;;;;;;;;;;5010733;28;20535;-68
2023/05/14 00:34:07;;;;;;;8.63;4.90;;;;;;;;;;4997218;28;20018;-70
2023/05/14 00:36:32;;;;;;;9.25;4.38;;;;;;;;;;5024804;28;20492;-68
2023/05/14 00:38:58;;;;;;;7.90;4.57;;;;;;;;;;5010448;28;20041;-69
2023/05/14 00:41:23;;;;;;;12.52;4.93;;;;;;;;;;5011834;28;20105;-66
2023/05/14 00:43:48;;;;;;;7.55;4.65;;;;;;;;;;5027605;28;20493;-66
2023/05/14 00:46:14;;;;;;;9.55;4.38;;;;;;;;;;5030263;28;20048;-70
2023/05/14 00:48:39;;;;;;;8.90;4.60;;;;;;;;;;5011467;28;20014;-67
2023/05/14 00:51:05;;;;;;;8.13;4.38;;;;;;;;;;5013919;28;20028;-68
2023/05/14 00:53:30;;;;;;;9.50;5.00;;;;;;;;;;5029341;28;20471;-69
2023/05/14 00:55:56;;;;;;;10.23;4.80;;;;;;;;;;5019035;28;20080;-69
2023/05/14 00:58:21;;;;;;;8.63;4.82;;;;;;;;;;5012618;28;20026;-69
2023/05/14 01:00:47;;;;;;;8.05;5.07;;;;;;;;;;4992485;28;20072;-70
2023/05/14 01:05:59;;;;;;;11.55;4.72;;;;;;;;;;4294690;26;20048;-89
2023/05/14 01:08:46;;;;;;;9.43;5.40;;;;;;;;;;5035042;28;20106;-90
2023/05/14 01:11:17;;;;;;;8.10;4.95;;;;;;;;;;5034521;28;20049;-89
2023/05/14 01:14:06;;;;;;;9.02;4.97;;;;;;;;;;5049748;28;20028;-89
2023/05/14 01:16:40;;;;;;;9.48;4.60;;;;;;;;;;4996793;28;20504;-89
2023/05/14 01:19:09;;;;;;;8.30;4.68;;;;;;;;;;5000145;28;20026;-89
2023/05/14 01:21:50;;;;;;;9.02;4.60;;;;;;;;;;5009669;28;20029;-89
2023/05/14 01:24:20;;;;;;;8.50;5.28;;;;;;;;;;5015400;28;20045;-89
2023/05/14 01:27:23;;;;;;;8.50;4.55;;;;;;;;;;5032872;28;20048;-89
2023/05/14 01:30:03;;;;;;;8.45;4.45;;;;;;;;;;5015554;28;20484;-89
2023/05/14 01:32:29;;;;;;;8.40;4.63;;;;;;;;;;5014753;28;20061;-88
2023/05/14 01:34:59;;;;;;;11.25;4.72;;;;;;;;;;5014899;28;20095;-90
2023/05/14 01:37:28;;;;;;;7.57;4.55;;;;;;;;;;5015061;28;20032;-89
2023/05/14 01:40:16;;;;;;;11.73;5.03;;;;;;;;;;5033540;28;20049;-90
2023/05/14 01:42:45;;;;;;;7.85;4.50;;;;;;;;;;5024748;28;20414;-89
2023/05/14 01:45:43;;;;;;;;;;;;;;;;;;;;;
2023/05/14 02:19:41;;;;;;;;;;;;;;;;;;;;;
2023/05/14 02:25:49;;;;;;;8.57;4.68;;;;;;;;;;4935526;29;20023;-90
2023/05/14 02:28:40;;;;;;;9.18;5.10;;;;;;;;;;4913240;29;20047;-90
2023/05/14 02:31:38;;;;;;;;;;;;;;;;;;;;;
2023/05/14 02:34:22;;;;;;;;;;;;;;;;;;;;;
2023/05/14 02:36:59;;;;;;;9.10;4.57;;;;;;;;;;4932794;29;19911;-89
2023/05/14 02:39:56;;;;;;;;;;;;;;;;;;;;;
2023/05/14 02:45:55;;;;;;;7.78;4.70;;;;;;;;;;4904819;29;20025;-89
2023/05/14 02:51:28;;;;;;;9.63;5.25;;;;;;;;;;4954685;29;20031;-88
2023/05/14 02:57:02;;;;;;;11.60;5.13;;;;;;;;;;4973489;28;20045;-88
2023/05/14 02:59:51;;;;;;;9.93;4.75;;;;;;;;;;4973303;28;20318;-87
2023/05/14 03:02:46;;;;;;;10.70;5.25;;;;;;;;;;4952641;29;20122;-88
2023/05/14 03:05:35;;;;;;;12.93;5.00;;;;;;;;;;4927974;29;20113;-88
2023/05/14 03:08:00;;;;;;;;;;;;;;;;;;4949614;29;20035;-88
2023/05/14 03:10:37;;;;;;;;;;;;;;;;;;;;;
2023/05/14 03:13:21;;;;;;;8.38;4.93;;;;;;;;;;4973986;28;20037;-88
2023/05/14 03:15:55;;;;;;;10.20;5.25;;;;;;;;;;4978509;28;20081;-88
2023/05/14 03:18:21;;;;;;;8.43;5.47;;;;;;;;;;4980590;28;20050;-89
2023/05/14 03:21:09;;;;;;;11.90;5.95;;;;;;;;;;4960852;28;20050;-88
2023/05/14 03:27:35;;;;;;;;;;;;;;;;;;;;;
2023/05/14 03:30:16;;;;;;;;;;;;;;;;;;;;;
2023/05/14 03:33:36;;;;;;;;;;;;;;;;;;;;;
2023/05/14 03:36:19;;;;;;;;;;;;;;;;;;;;;
2023/05/14 03:38:45;;;;;;;11.07;5.85;;;;;;;;;;4938328;29;20094;-89
2023/05/14 03:41:20;;;;;;;12.10;5.90;;;;;;;;;;4943375;29;20063;-89
2023/05/14 03:43:51;;;;;;;9.13;5.18;;;;;;;;;;4936666;29;20088;-88
2023/05/14 03:46:27;;;;;;;9.27;6.13;;;;;;;;;;4953833;29;20034;-89
2023/05/14 03:52:17;;;;;;;;;;;;;;;;;;;;;
2023/05/14 03:55:16;;;;;;;11.30;5.57;;;;;;;;;;4936689;29;20411;-89
2023/05/14 03:58:12;;;;;;;;;;;;;;;;;;;;;
2023/05/14 04:06:58;;;;;;;11.63;5.90;;;;;;;;;;4995104;28;20517;-88
2023/05/14 04:12:26;;;;;;;11.23;5.75;;;;;;;;;;4928394;28;20057;-88
2023/05/14 04:15:20;;;;;;;8.07;4.70;;;;;;;;;;4939731;29;20472;-88
2023/05/14 04:18:25;;;;;;;9.25;4.85;;;;;;;;;;4955548;28;20082;-88
2023/05/14 04:20:53;;;;;;;10.63;4.75;;;;;;;;;;4961975;28;20506;-88
2023/05/14 04:23:47;;;;;;;10.65;4.95;;;;;;;;;;4946745;28;20047;-87
2023/05/14 04:32:50;;;;;;;10.90;5.10;;;;;;;;;;4879245;29;20057;-88
2023/05/14 04:35:28;;;;;;;8.23;4.93;;;;;;;;;;4879135;29;20032;-88
2023/05/14 04:38:17;;;;;;;;;;;;;;;;;;;;;
2023/05/14 04:40:52;;;;;;;11.38;4.88;;;;;;;;;;4879682;29;20036;-89
2023/05/14 04:43:32;;;;;;;8.38;4.53;;;;;;;;;;4887303;29;20112;-89
2023/05/14 04:56:03;;;;;;;10.95;5.65;;;;;;;;;;4824145;29;20117;-88
2023/05/14 04:58:51;;;;;;;9.45;5.25;;;;;;;;;;4824192;29;20030;-89
2023/05/14 05:01:52;;;;;;;;;;;;;;;;;;;;;
2023/05/14 05:04:22;;;;;;;8.70;5.00;;;;;;;;;;4896550;29;20035;-89
2023/05/14 05:06:52;;;;;;;8.20;5.15;;;;;;;;;;4950015;28;20372;-90
2023/05/14 05:18:32;;;;;;;9.45;5.50;;;;;;;;;;4916184;29;20111;-89
2023/05/14 05:21:06;;;;;;;10.25;5.32;;;;;;;;;;4918023;29;20027;-88
2023/05/14 05:24:16;;;;;;;;;;;;;;;;;;;;;
2023/05/14 05:33:46;;;;;;;;;;;;;;;;;;;;;
2023/05/14 05:43:13;;;;;;;;;;;;;;;;;;;;;
2023/05/14 05:48:31;;;;;;;8.10;5.20;;;;;;;;;;4851819;29;20030;-89
2023/05/14 05:51:06;;;;;;;10.02;5.22;;;;;;;;;;4840330;29;20025;-90
2023/05/14 06:03:28;;;;;;;;;;;;;;;;;;;;;
2023/05/14 06:21:24;;;;;;;7.70;4.53;;;;;;;;;;4973743;28;20030;-89
2023/05/14 06:27:10;;;;;;;12.18;4.43;;;;;;;;;;4894456;29;20123;-89
2023/05/14 06:30:14;;;;;;;8.50;4.53;;;;;;;;;;4915422;29;20405;-89
2023/05/14 06:33:12;;;;;;;10.95;5.25;;;;;;;;;;4894653;29;20044;-90
2023/05/14 06:35:59;;;;;;;;;;;;;;;;;;4864954;29;20037;-89
2023/05/14 06:38:46;;;;;;;9.07;5.40;;;;;;;;;;4886399;29;19907;-89
2023/05/14 06:41:28;;;;;;;10.88;4.85;;;;;;;;;;4899634;29;20033;-90
2023/05/14 06:44:48;;;;;;;;;;;;;;;;;;;;;
2023/05/14 06:52:55;;;;;;;10.02;5.53;;;;;;;;;;4931926;29;20114;-92
2023/05/14 06:55:49;;;;;;;11.85;4.65;;;;;;;;;;4953504;28;20090;-92
2023/05/14 07:06:57;;;;;;;15.60;5.45;;;;;;;;;;5027933;28;20103;-67
2023/05/14 07:09:22;;;;;;;9.68;4.50;;;;;;;;;;5025171;28;20101;-63
2023/05/14 07:11:47;;;;;;;8.70;4.65;;;;;;;;;;5028030;28;20117;-66
2023/05/14 07:14:13;;;;;;;10.93;5.00;;;;;;;;;;5023230;28;20163;-66
2023/05/14 07:16:39;;;;;;;8.25;4.32;;;;;;;;;;5006976;28;20109;-66
2023/05/14 07:19:04;;;;;;;7.30;4.63;;;;;;;;;;5013026;28;20454;-65
2023/05/14 07:21:30;;;;;;;7.70;4.40;;;;;;;;;;5011175;28;20508;-68
2023/05/14 07:23:55;;;;;;;8.88;4.60;;;;;;;;;;5010567;28;20018;-67
2023/05/14 07:26:23;;;;;;;9.90;4.28;;;;;;;;;;5011924;28;20415;-66
2023/05/14 07:28:48;;;;;;;7.85;4.55;;;;;;;;;;5013321;28;20104;-65
2023/05/14 07:31:13;;;;;;;8.00;4.95;;;;;;;;;;5011998;28;20068;-65
2023/05/14 07:33:38;;;;;;;8.38;4.78;;;;;;;;;;5011794;28;20018;-66
2023/05/14 07:36:04;;;;;;;12.55;4.35;;;;;;;;;;5011863;28;20021;-66
2023/05/14 07:38:29;;;;;;;8.55;4.50;;;;;;;;;;5009902;28;20017;-67
2023/05/14 07:40:55;;;;;;;7.47;4.57;;;;;;;;;;5011637;28;20084;-68
2023/05/14 07:43:20;;;;;;;6.55;3.97;;;;;;;;;;5011569;28;20021;-66
2023/05/14 07:45:46;;;;;;;7.38;4.45;;;;;;;;;;5011534;28;20028;-65
2023/05/14 07:48:11;;;;;;;7.97;4.45;;;;;;;;;;5010570;28;20014;-66
2023/05/14 07:50:38;;;;;;;7.80;4.60;;;;;;;;;;5006692;28;20022;-66
2023/05/14 07:53:04;;;;;;;7.95;3.45;;;;;;;;;;5010878;28;20029;-66
2023/05/14 07:55:29;;;;;;;8.35;4.15;;;;;;;;;;5010814;28;20034;-66
2023/05/14 07:57:54;;;;;;;11.85;3.63;;;;;;;;;;5009465;28;20412;-68
2023/05/14 08:00:23;;;;;;;6.78;3.60;;;;;;;;;;5011086;28;20492;-64
2023/05/14 08:02:49;;;;;;;10.25;4.40;;;;;;;;;;5011446;28;20063;-66
2023/05/14 08:05:14;;;;;;;10.57;4.53;;;;;;;;;;5001705;28;20057;-65
2023/05/14 08:07:40;;;;;;;5.88;3.55;;;;;;;;;;5016548;28;20638;-66
2023/05/14 08:10:06;;;;;;;13.98;4.25;;;;;;;;;;5012507;28;20010;-65
2023/05/14 08:12:32;;;;;;;7.50;3.65;;;;;;;;;;5010238;28;20430;-64
2023/05/14 08:14:57;;;;;;;9.50;4.18;;;;;;;;;;5010332;28;20030;-66
2023/05/14 08:17:22;;;;;;;8.07;3.60;;;;;;;;;;5011051;28;20511;-64
2023/05/14 08:19:48;;;;;;;11.13;4.10;;;;;;;;;;5009818;28;20026;-66
2023/05/14 08:22:13;;;;;;;7.00;3.90;;;;;;;;;;5010546;28;20017;-66
2023/05/14 08:24:38;;;;;;;10.18;4.15;;;;;;;;;;5010875;28;20024;-66
2023/05/14 08:27:04;;;;;;;7.03;3.42;;;;;;;;;;5010575;28;20104;-66
2023/05/14 08:29:29;;;;;;;7.60;3.75;;;;;;;;;;5010969;28;20080;-66
2023/05/14 08:31:54;;;;;;;13.55;3.80;;;;;;;;;;5010738;28;20410;-65
2023/05/14 08:34:20;;;;;;;8.90;3.45;;;;;;;;;;5005034;28;20467;-65
2023/05/14 08:36:45;;;;;;;7.97;3.67;;;;;;;;;;5005901;28;20604;-66
2023/05/14 08:39:10;;;;;;;6.40;3.45;;;;;;;;;;5009063;28;20501;-67
2023/05/14 08:41:39;;;;;;;11.70;3.75;;;;;;;;;;5010313;28;20030;-65
2023/05/14 08:44:11;;;;;;;6.07;3.20;;;;;;;;;;5010111;28;20018;-66
2023/05/14 08:46:37;;;;;;;16.95;4.72;;;;;;;;;;5010421;28;20056;-66
2023/05/14 08:49:23;;;;;;;8.77;3.75;;;;;;;;;;5010405;28;20018;-64
2023/05/14 08:51:48;;;;;;;6.00;3.40;;;;;;;;;;4982484;28;20038;-66
2023/05/14 08:54:16;;;;;;;8.85;3.38;;;;;;;;;;5005164;28;20505;-65
2023/05/14 08:56:47;;;;;;;9.57;4.22;;;;;;;;;;5010106;28;20026;-66
2023/05/14 08:59:13;;;;;;;7.32;4.53;;;;;;;;;;4997528;28;20117;-66
2023/05/14 09:01:43;;;;;;;15.50;4.15;;;;;;;;;;5000378;28;20104;-67
2023/05/14 09:04:09;;;;;;;7.32;4.32;;;;;;;;;;5009345;28;20018;-65
2023/05/14 09:06:36;;;;;;;11.73;3.85;;;;;;;;;;5009900;28;20463;-66
2023/05/14 09:09:01;;;;;;;7.05;4.07;;;;;;;;;;5008290;28;20013;-66
2023/05/14 09:11:27;;;;;;;11.63;3.90;;;;;;;;;;4999116;28;20017;-66
2023/05/14 09:13:52;;;;;;;14.65;3.97;;;;;;;;;;4999774;28;20045;-65
2023/05/14 09:16:17;;;;;;;6.60;3.70;;;;;;;;;;5002690;28;20033;-65
2023/05/14 09:18:44;;;;;;;10.57;4.00;;;;;;;;;;5004556;28;20029;-66
2023/05/14 09:21:09;;;;;;;9.15;3.58;;;;;;;;;;5005648;28;20026;-67
2023/05/14 09:23:35;;;;;;;13.70;4.30;;;;;;;;;;5009074;28;20032;-64
2023/05/14 09:26:03;;;;;;;6.53;3.65;;;;;;;;;;5004610;28;20053;-66
2023/05/14 09:28:29;;;;;;;7.38;3.72;;;;;;;;;;4997640;28;20010;-67
2023/05/14 09:30:54;;;;;;;7.10;4.25;;;;;;;;;;5011283;28;20032;-65
2023/05/14 09:33:27;;;;;;;10.50;5.93;;;;;;;;;;5004557;28;20029;-65
2023/05/14 09:35:54;;;;;;;10.70;4.15;;;;;;;;;;5010048;28;20285;-66
2023/05/14 09:38:19;;;;;;;5.93;3.45;;;;;;;;;;5011802;28;20061;-64
2023/05/14 09:40:45;;;;;;;15.68;3.90;;;;;;;;;;5007228;28;20061;-65
2023/05/14 09:43:10;;;;;;;9.45;3.83;;;;;;;;;;5008913;28;20468;-67
2023/05/14 09:45:35;;;;;;;11.15;3.20;;;;;;;;;;5010220;28;20540;-66
2023/05/14 09:48:01;;;;;;;6.65;3.88;;;;;;;;;;5008425;28;20447;-67
2023/05/14 09:50:26;;;;;;;7.28;3.50;;;;;;;;;;5004481;28;20022;-62
2023/05/14 09:52:53;;;;;;;7.40;3.33;;;;;;;;;;5007968;28;20033;-63
2023/05/14 09:55:19;;;;;;;6.20;3.17;;;;;;;;;;5004314;28;20053;-64
2023/05/14 09:57:44;;;;;;;11.35;3.78;;;;;;;;;;5011135;28;20057;-64
2023/05/14 10:00:11;;;;;;;8.05;3.55;;;;;;;;;;5013108;28;20017;-65
2023/05/14 10:02:37;;;;;;;7.45;3.40;;;;;;;;;;5009148;28;20035;-63
2023/05/14 10:05:05;;;;;;;6.78;3.42;;;;;;;;;;5008336;28;20471;-65
2023/05/14 10:07:43;;;;;;;8.98;3.35;;;;;;;;;;5012360;28;20029;-65
2023/05/14 10:10:12;;;;;;;8.52;3.65;;;;;;;;;;5007760;28;20033;-64
2023/05/14 10:12:38;;;;;;;7.85;3.55;;;;;;;;;;5011064;28;20491;-66
2023/05/14 10:15:05;;;;;;;6.72;3.47;;;;;;;;;;5009570;28;20044;-65
2023/05/14 10:17:33;;;;;;;7.53;4.13;;;;;;;;;;5002651;28;20041;-65
2023/05/14 10:20:01;;;;;;;6.70;3.28;;;;;;;;;;5005238;28;20514;-65
2023/05/14 10:22:29;;;;;;;5.53;3.08;;;;;;;;;;4998395;28;20018;-65
2023/05/14 10:24:55;;;;;;;10.70;3.90;;;;;;;;;;4999776;28;20113;-67
2023/05/14 10:27:20;;;;;;;6.22;3.38;;;;;;;;;;4999982;28;20014;-64
2023/05/14 10:29:53;;;;;;;5.60;2.97;;;;;;;;;;5000497;28;20167;-66
2023/05/14 10:32:19;;;;;;;7.55;3.08;;;;;;;;;;4997858;28;20029;-68
2023/05/14 10:34:44;;;;;;;6.70;3.22;;;;;;;;;;5000223;28;20379;-65
2023/05/14 10:37:11;;;;;;;7.93;3.70;;;;;;;;;;5000559;28;20116;-64
2023/05/14 10:39:39;;;;;;;8.68;4.05;;;;;;;;;;5001119;28;20152;-66
2023/05/14 10:42:04;;;;;;;8.52;3.50;;;;;;;;;;4998126;28;20022;-65
2023/05/14 10:44:30;;;;;;;6.50;4.28;;;;;;;;;;4997998;28;20099;-63
2023/05/14 10:46:55;;;;;;;11.15;3.22;;;;;;;;;;5000302;28;20046;-64
2023/05/14 10:49:21;;;;;;;8.35;3.83;;;;;;;;;;5000819;28;20032;-65
2023/05/14 10:51:48;;;;;;;6.18;3.40;;;;;;;;;;5000658;28;20056;-65
2023/05/14 10:54:15;;;;;;;7.47;3.13;;;;;;;;;;4999698;28;20096;-65
2023/05/14 10:56:42;;;;;;;7.90;3.67;;;;;;;;;;5000492;28;20030;-63
2023/05/14 10:59:07;;;;;;;6.57;3.38;;;;;;;;;;4998987;28;20034;-65
2023/05/14 11:01:32;;;;;;;8.38;3.25;;;;;;;;;;5014924;28;20036;-66
2023/05/14 11:03:58;;;;;;;6.32;3.22;;;;;;;;;;4997242;28;20022;-68
2023/05/14 11:06:24;;;;;;;7.00;3.08;;;;;;;;;;4998927;28;20061;-66
2023/05/14 11:08:50;;;;;;;6.57;3.00;;;;;;;;;;4999480;28;20018;-64
2023/05/14 11:11:17;;;;;;;5.70;3.17;;;;;;;;;;4998519;28;20022;-65
2023/05/14 11:13:43;;;;;;;5.68;3.17;;;;;;;;;;4995406;28;20486;-65
2023/05/14 11:16:09;;;;;;;5.90;3.28;;;;;;;;;;4998538;28;20261;-66
2023/05/14 11:18:37;;;;;;;6.53;3.22;;;;;;;;;;5000340;28;20048;-65
2023/05/14 11:21:02;;;;;;;6.35;3.55;;;;;;;;;;4999085;28;20109;-62
2023/05/14 11:23:28;;;;;;;5.60;3.20;;;;;;;;;;4998615;28;20096;-65
2023/05/14 11:25:54;;;;;;;7.50;3.80;;;;;;;;;;5000215;28;20112;-64
2023/05/14 11:28:23;;;;;;;8.82;3.92;;;;;;;;;;5000013;28;20022;-63
2023/05/14 11:30:48;;;;;;;;;;;;;;;;;;4999752;28;20026;-62
2023/05/14 11:33:13;;;;;;;8.57;3.78;;;;;;;;;;4998278;28;19921;-65
2023/05/14 11:35:38;;;;;;;15.32;4.22;;;;;;;;;;4999726;28;20030;-64
2023/05/14 11:38:03;;;;;;;7.45;3.90;;;;;;;;;;5000782;28;20026;-64
2023/05/14 11:40:29;;;;;;;5.90;3.47;;;;;;;;;;5000037;28;20034;-66
2023/05/14 11:42:54;;;;;;;9.10;3.95;;;;;;;;;;4999404;28;20075;-66
2023/05/14 11:45:26;;;;;;;9.80;4.30;;;;;;;;;;4999775;28;20026;-64
2023/05/14 11:47:51;;;;;;;6.90;3.47;;;;;;;;;;5001600;28;20030;-65
2023/05/14 11:50:16;;;;;;;6.80;4.15;;;;;;;;;;4998974;28;20037;-69
2023/05/14 11:52:42;;;;;;;6.32;3.88;;;;;;;;;;4997810;28;20116;-65
2023/05/14 11:55:11;;;;;;;8.20;3.70;;;;;;;;;;4998670;28;20094;-60
2023/05/14 11:57:36;;;;;;;6.75;3.28;;;;;;;;;;4999256;28;21153;-66
2023/05/14 12:00:03;;;;;;;10.90;4.43;;;;;;;;;;5003909;28;20034;-66
2023/05/14 12:02:28;;;;;;;9.95;3.75;;;;;;;;;;4998411;28;20030;-64
2023/05/14 12:04:54;;;;;;;9.13;3.97;;;;;;;;;;5000893;28;20034;-65
2023/05/14 12:07:19;;;;;;;6.30;4.00;;;;;;;;;;5000473;28;20022;-64
2023/05/14 12:09:48;;;;;;;7.38;3.55;;;;;;;;;;5000371;28;20025;-63
2023/05/14 12:12:13;;;;;;;4.97;3.13;;;;;;;;;;4998758;28;20137;-64
2023/05/14 12:14:40;;;;;;;5.95;3.63;;;;;;;;;;4999508;28;20040;-64
2023/05/14 12:17:13;;;;;;;6.95;3.30;;;;;;;;;;5000493;28;20042;-64
2023/05/14 12:19:40;;;;;;;6.40;2.80;;;;;;;;;;5000542;28;20056;-62
2023/05/14 12:22:06;;;;;;;6.20;3.05;;;;;;;;;;4998368;28;20033;-64
2023/05/14 12:24:32;;;;;;;6.75;2.72;;;;;;;;;;4998286;28;20026;-64
2023/05/14 12:27:00;;;;;;;5.95;2.83;;;;;;;;;;5000060;28;20027;-64
2023/05/14 12:29:25;;;;;;;7.82;2.72;;;;;;;;;;4999482;28;20558;-64
2023/05/14 12:31:50;;;;;;;7.05;2.90;;;;;;;;;;5000209;28;20026;-65
2023/05/14 12:34:16;;;;;;;7.45;2.60;;;;;;;;;;4996778;28;20104;-64
2023/05/14 12:36:42;;;;;;;5.50;2.40;;;;;;;;;;4998320;28;20029;-61
2023/05/14 12:39:08;;;;;;;6.18;2.80;;;;;;;;;;4999549;28;20626;-65
2023/05/14 12:41:34;;;;;;;8.55;2.85;;;;;;;;;;4998325;28;20387;-65
2023/05/14 12:43:59;;;;;;;5.80;2.50;;;;;;;;;;4996778;28;20029;-64
2023/05/14 12:46:25;;;;;;;5.45;2.58;;;;;;;;;;5000101;28;20411;-65
2023/05/14 12:48:51;;;;;;;5.90;2.63;;;;;;;;;;4998339;28;20025;-64
2023/05/14 12:51:16;;;;;;;5.55;2.67;;;;;;;;;;4998192;28;20779;-64
2023/05/14 12:53:41;;;;;;;5.90;3.00;;;;;;;;;;4997067;28;20495;-66
2023/05/14 12:56:06;;;;;;;4.65;2.50;;;;;;;;;;5031193;22;20167;-69
2023/05/14 12:58:32;;;;;;;6.47;3.00;;;;;;;;;;5025329;28;20109;-71
2023/05/14 13:00:57;;;;;;;5.38;2.70;;;;;;;;;;5025037;28;20098;-68
2023/05/14 13:03:22;;;;;;;5.57;2.67;;;;;;;;;;5023687;28;20447;-68
2023/05/14 13:05:50;;;;;;;4.45;2.65;;;;;;;;;;5037784;28;20151;-67
2023/05/14 13:08:16;;;;;;;5.15;3.03;;;;;;;;;;5044622;28;21440;-68
2023/05/14 13:10:42;;;;;;;6.63;3.50;;;;;;;;;;5043663;28;20025;-66
2023/05/14 13:13:07;;;;;;;7.63;3.15;;;;;;;;;;5043498;28;20021;-70
2023/05/14 13:15:34;;;;;;;6.40;3.50;;;;;;;;;;5045971;28;20378;-69
2023/05/14 13:17:59;;;;;;;6.90;3.38;;;;;;;;;;5043624;28;20115;-69
2023/05/14 13:20:26;;;;;;;6.03;3.28;;;;;;;;;;5047862;28;20052;-70
2023/05/14 13:22:51;;;;;;;7.32;3.35;;;;;;;;;;5043509;28;20029;-67
2023/05/14 13:25:16;;;;;;;5.60;3.00;;;;;;;;;;5043815;28;20035;-69
2023/05/14 13:27:42;;;;;;;6.70;2.40;;;;;;;;;;5047150;28;20340;-68
2023/05/14 13:30:07;;;;;;;5.60;2.13;;;;;;;;;;5046845;28;20025;-68
2023/05/14 13:32:32;;;;;;;4.75;2.38;;;;;;;;;;5023152;28;20029;-69
2023/05/14 13:34:57;;;;;;;6.88;2.10;;;;;;;;;;5029649;28;20497;-67
2023/05/14 13:37:23;;;;;;;4.40;2.17;;;;;;;;;;5045912;28;20020;-69
2023/05/14 13:39:48;;;;;;;3.45;1.88;;;;;;;;;;5048614;28;20299;-67
2023/05/14 13:42:13;;;;;;;7.95;2.47;;;;;;;;;;5041407;28;20048;-72
2023/05/14 13:44:39;;;;;;;5.05;2.60;;;;;;;;;;5046190;28;20135;-70
2023/05/14 13:47:04;;;;;;;6.35;2.13;;;;;;;;;;5045625;28;20170;-68
2023/05/14 13:49:29;;;;;;;8.95;2.58;;;;;;;;;;5044911;28;20032;-67
2023/05/14 13:51:54;;;;;;;6.93;2.78;;;;;;;;;;5048329;28;20404;-69
2023/05/14 13:54:20;;;;;;;4.70;2.53;;;;;;;;;;5044224;28;20846;-68
2023/05/14 13:56:45;;;;;;;8.50;2.40;;;;;;;;;;5044039;28;20281;-68
2023/05/14 13:59:11;;;;;;;6.75;2.30;;;;;;;;;;5044449;28;20024;-71
2023/05/14 14:01:36;;;;;;;6.13;2.45;;;;;;;;;;5045652;28;20602;-67
2023/05/14 14:04:02;;;;;;;5.15;2.42;;;;;;;;;;5041839;28;20036;-71
2023/05/14 14:06:29;;;;;;;5.70;2.97;;;;;;;;;;5047475;28;20029;-64
2023/05/14 14:08:54;;;;;;;6.28;2.63;;;;;;;;;;5046437;28;20366;-71
2023/05/14 14:11:20;;;;;;;4.47;2.10;;;;;;;;;;5046394;28;20033;-68
2023/05/14 14:13:45;;;;;;;4.82;2.47;;;;;;;;;;5046200;28;20086;-66
2023/05/14 14:16:11;;;;;;;6.18;2.42;;;;;;;;;;5046235;28;20081;-68
2023/05/14 14:18:36;;;;;;;5.93;2.97;;;;;;;;;;5047549;28;20055;-66
2023/05/14 14:21:01;;;;;;;7.25;2.50;;;;;;;;;;5044426;28;20025;-70
2023/05/14 14:23:26;;;;;;;8.48;2.50;;;;;;;;;;5044556;28;20017;-69
2023/05/14 14:25:52;;;;;;;5.68;3.00;;;;;;;;;;5045218;28;20033;-70
2023/05/14 14:28:17;;;;;;;6.07;2.35;;;;;;;;;;5048216;28;20029;-70
2023/05/14 14:30:43;;;;;;;5.80;2.58;;;;;;;;;;5043135;28;20067;-70
2023/05/14 14:33:08;;;;;;;5.13;2.35;;;;;;;;;;5045521;28;20772;-66
2023/05/14 14:35:34;;;;;;;8.30;2.50;;;;;;;;;;5044837;28;20025;-70
2023/05/14 14:37:59;;;;;;;5.70;2.42;;;;;;;;;;5046332;28;20066;-69
2023/05/14 14:40:25;;;;;;;8.45;2.28;;;;;;;;;;5046423;28;20139;-65
2023/05/14 14:42:50;;;;;;;3.95;2.25;;;;;;;;;;5031776;28;20033;-69
2023/05/14 14:45:15;;;;;;;5.00;2.05;;;;;;;;;;5050903;28;20031;-66
2023/05/14 14:47:42;;;;;;;3.73;2.23;;;;;;;;;;5046980;28;20108;-70
2023/05/14 14:50:07;;;;;;;4.68;2.47;;;;;;;;;;5032185;28;20639;-65
2023/05/14 14:52:33;;;;;;;5.75;2.30;;;;;;;;;;5049080;28;20028;-67
2023/05/14 14:54:58;;;;;;;4.80;2.63;;;;;;;;;;5046518;28;20040;-67
2023/05/14 14:57:23;;;;;;;4.00;2.13;;;;;;;;;;5049940;28;20045;-69
2023/05/14 14:59:49;;;;;;;5.18;2.60;;;;;;;;;;5047519;28;20437;-70
2023/05/14 15:02:14;;;;;;;5.93;2.83;;;;;;;;;;5043194;28;20120;-69
2023/05/14 15:04:39;;;;;;;5.43;2.40;;;;;;;;;;5045364;28;20104;-70
2023/05/14 15:07:05;;;;;;;5.50;1.90;;;;;;;;;;5047471;28;20032;-68
2023/05/14 15:09:30;;;;;;;7.10;2.50;;;;;;;;;;5050760;28;20191;-71
2023/05/14 15:11:55;;;;;;;9.13;2.92;;;;;;;;;;5046719;28;20198;-68
2023/05/14 15:14:21;;;;;;;8.18;2.72;;;;;;;;;;5047041;28;20133;-71
2023/05/14 15:16:46;;;;;;;6.72;3.33;;;;;;;;;;5048429;28;20233;-66
2023/05/14 15:19:11;;;;;;;6.95;3.03;;;;;;;;;;5046001;28;20085;-70
2023/05/14 15:21:37;;;;;;;5.88;3.03;;;;;;;;;;5048215;28;20068;-67
2023/05/14 15:24:03;;;;;;;7.55;2.92;;;;;;;;;;5046883;28;20017;-71
2023/05/14 15:26:28;;;;;;;5.38;2.35;;;;;;;;;;5047496;28;20032;-69
2023/05/14 15:28:53;;;;;;;7.40;2.70;;;;;;;;;;5046732;28;20029;-65
2023/05/14 15:31:18;;;;;;;5.65;2.95;;;;;;;;;;5047928;28;21130;-69
2023/05/14 15:33:43;;;;;;;7.85;3.33;;;;;;;;;;5047571;28;20029;-71
2023/05/14 15:36:09;;;;;;;6.40;3.28;;;;;;;;;;5046825;28;20040;-68
2023/05/14 15:38:34;;;;;;;5.97;2.97;;;;;;;;;;5046705;28;20028;-70
2023/05/14 15:40:59;;;;;;;7.82;3.05;;;;;;;;;;5048049;28;20584;-70
2023/05/14 15:43:24;;;;;;;6.07;2.95;;;;;;;;;;5047109;28;20036;-67
2023/05/14 15:45:50;;;;;;;6.78;3.10;;;;;;;;;;5052114;28;20032;-73
2023/05/14 15:48:15;;;;;;;9.07;3.00;;;;;;;;;;5047351;28;20036;-66
2023/05/14 15:50:41;;;;;;;6.67;2.90;;;;;;;;;;5047454;28;20039;-68
2023/05/14 15:53:06;;;;;;;5.70;3.30;;;;;;;;;;5045686;28;20332;-68
2023/05/14 15:55:31;;;;;;;7.72;3.83;;;;;;;;;;5050146;28;20025;-66
2023/05/14 15:57:56;;;;;;;9.52;3.38;;;;;;;;;;5048301;28;20043;-70
2023/05/14 16:00:23;;;;;;;5.63;3.30;;;;;;;;;;5048745;28;20047;-69
2023/05/14 16:02:48;;;;;;;6.47;3.40;;;;;;;;;;5047680;28;20037;-68
2023/05/14 16:05:14;;;;;;;5.72;2.90;;;;;;;;;;5045768;28;20032;-66
2023/05/14 16:07:40;;;;;;;9.23;3.38;;;;;;;;;;5046535;28;20785;-70
2023/05/14 16:10:05;;;;;;;6.97;3.15;;;;;;;;;;5041234;28;20024;-68
2023/05/14 16:12:30;;;;;;;15.60;4.03;;;;;;;;;;5049048;28;20024;-70
2023/05/14 16:14:56;;;;;;;6.03;3.42;;;;;;;;;;5048065;28;20021;-72
2023/05/14 16:17:21;;;;;;;9.93;3.33;;;;;;;;;;5048771;28;20059;-66
2023/05/14 16:19:47;;;;;;;7.85;3.30;;;;;;;;;;5044537;28;20102;-67
2023/05/14 16:22:12;;;;;;;8.38;3.35;;;;;;;;;;5042756;28;20032;-68
2023/05/14 16:24:37;;;;;;;6.28;3.08;;;;;;;;;;5041726;28;20009;-69
2023/05/14 16:27:03;;;;;;;9.10;4.65;;;;;;;;;;5046738;28;20016;-69
2023/05/14 16:29:28;;;;;;;10.05;3.47;;;;;;;;;;5019249;28;20032;-73
2023/05/14 16:31:53;;;;;;;9.65;3.15;;;;;;;;;;5038891;28;20029;-66
2023/05/14 16:34:18;;;;;;;6.25;3.10;;;;;;;;;;5021548;28;20043;-69
2023/05/14 16:36:44;;;;;;;8.90;2.95;;;;;;;;;;5046933;28;20046;-69
2023/05/14 16:39:10;;;;;;;10.57;3.28;;;;;;;;;;5040256;28;20037;-67
2023/05/14 16:41:35;;;;;;;8.05;2.95;;;;;;;;;;5043574;28;20016;-69
2023/05/14 16:44:00;;;;;;;7.38;3.60;;;;;;;;;;5039078;28;20021;-71
2023/05/14 16:46:27;;;;;;;8.35;3.45;;;;;;;;;;5045579;28;20024;-69
2023/05/14 16:48:53;;;;;;;7.53;3.20;;;;;;;;;;5037577;28;20520;-72
2023/05/14 16:51:18;;;;;;;9.10;3.50;;;;;;;;;;5043745;28;20502;-68
2023/05/14 16:53:43;;;;;;;6.22;3.25;;;;;;;;;;5023828;28;20037;-71
2023/05/14 16:56:09;;;;;;;6.53;3.35;;;;;;;;;;5040761;28;20024;-68
2023/05/14 16:58:34;;;;;;;6.38;3.28;;;;;;;;;;5046570;28;20143;-69
2023/05/14 17:01:00;;;;;;;6.97;3.30;;;;;;;;;;5043190;28;20041;-69
2023/05/14 17:03:25;;;;;;;5.43;3.13;;;;;;;;;;5047273;28;20412;-72
2023/05/14 17:05:51;;;;;;;8.47;3.43;;;;;;;;;;5048900;28;20260;-69
2023/05/14 17:08:16;;;;;;;5.57;2.92;;;;;;;;;;5045218;28;20283;-72
2023/05/14 17:10:41;;;;;;;5.97;2.67;;;;;;;;;;5044856;28;20124;-68
2023/05/14 17:13:06;;;;;;;5.38;2.20;;;;;;;;;;5041810;28;20055;-74
2023/05/14 17:15:31;;;;;;;5.97;2.58;;;;;;;;;;5045742;28;20139;-69
2023/05/14 17:17:57;;;;;;;7.45;2.60;;;;;;;;;;5047857;28;20191;-70
2023/05/14 17:20:22;;;;;;;11.18;2.50;;;;;;;;;;5045285;28;20142;-71
2023/05/14 17:22:47;;;;;;;5.28;2.75;;;;;;;;;;5041566;28;20116;-69
2023/05/14 17:25:14;;;;;;;3.88;2.00;;;;;;;;;;5029237;28;20143;-72
2023/05/14 17:27:39;;;;;;;5.85;2.30;;;;;;;;;;5046796;28;20103;-69
2023/05/14 17:30:05;;;;;;;5.68;2.10;;;;;;;;;;5046083;28;20114;-70
2023/05/14 17:32:31;;;;;;;5.22;2.30;;;;;;;;;;5044185;28;20024;-73
2023/05/14 17:34:56;;;;;;;3.33;2.00;;;;;;;;;;5045953;28;20116;-72
2023/05/14 17:37:24;;;;;;;5.47;2.20;;;;;;;;;;5046238;28;20033;-72
2023/05/14 17:39:49;;;;;;;3.83;2.10;;;;;;;;;;5044985;28;20121;-71